createdAt,value
2018-04-12T00:00:19.563Z,15.79
2018-04-12T00:01:19.577Z,15.81
2018-04-12T00:02:19.595Z,15.88
2018-04-12T00:03:19.620Z,15.76
2018-04-12T00:04:19.649Z,15.59
2018-04-12T00:05:19.670Z,15.43
2018-04-12T00:06:19.698Z,15.66
2018-04-12T00:07:19.715Z,15.81
2018-04-12T00:08:19.731Z,15.81
2018-04-12T00:09:19.760Z,15.78
2018-04-12T00:10:19.785Z,15.78
2018-04-12T00:11:19.802Z,15.78
2018-04-12T00:12:19.830Z,15.76
2018-04-12T00:13:19.850Z,15.94
2018-04-12T00:14:19.869Z,15.96
2018-04-12T00:15:19.903Z,15.79
2018-04-12T00:16:19.923Z,15.85
2018-04-12T00:17:19.942Z,15.82
2018-04-12T00:18:19.963Z,15.67
2018-04-12T00:19:20.011Z,15.67
2018-04-12T00:20:20.027Z,15.67
2018-04-12T00:21:20.041Z,15.70
2018-04-12T00:22:20.055Z,15.66
2018-04-12T00:23:20.078Z,15.74
2018-04-12T00:24:20.093Z,15.66
2018-04-12T00:25:20.128Z,15.36
2018-04-12T00:26:20.144Z,15.31
2018-04-12T00:27:20.165Z,15.54
2018-04-12T00:28:20.191Z,15.60
2018-04-12T00:29:20.213Z,15.67
2018-04-12T00:30:20.236Z,15.72
2018-04-12T00:31:20.262Z,15.57
2018-04-12T00:32:20.286Z,15.43
2018-04-12T00:33:20.303Z,15.17
2018-04-12T00:34:20.326Z,15.03
2018-04-12T00:35:20.345Z,14.98
2018-04-12T00:36:20.368Z,14.93
2018-04-12T00:37:20.392Z,14.91
2018-04-12T00:38:20.418Z,14.99
2018-04-12T00:39:20.451Z,15.03
2018-04-12T00:40:20.482Z,15.02
2018-04-12T00:41:20.484Z,15.03
2018-04-12T00:42:20.511Z,14.98
2018-04-12T00:43:20.538Z,15.02
2018-04-12T00:44:20.550Z,14.93
2018-04-12T00:45:20.597Z,14.99
2018-04-12T00:46:20.613Z,14.91
2018-04-12T00:47:20.620Z,14.91
2018-04-12T00:48:20.642Z,14.81
2018-04-12T00:49:20.664Z,14.87
2018-04-12T00:50:20.690Z,14.68
2018-04-12T00:51:20.714Z,14.72
2018-04-12T00:52:20.733Z,14.74
2018-04-12T00:53:20.760Z,14.75
2018-04-12T00:54:20.777Z,14.71
2018-04-12T00:55:20.802Z,14.80
2018-04-12T00:56:20.829Z,14.75
2018-04-12T00:57:20.852Z,14.80
2018-04-12T00:58:20.917Z,14.88
2018-04-12T00:59:20.900Z,15.13
2018-04-12T01:00:20.919Z,15.05
2018-04-12T01:01:20.935Z,15.01
2018-04-12T01:02:20.967Z,15.13
2018-04-12T01:03:20.986Z,15.24
2018-04-12T01:04:21.010Z,15.20
2018-04-12T01:05:21.029Z,15.46
2018-04-12T01:06:21.056Z,15.43
2018-04-12T01:07:21.079Z,15.31
2018-04-12T01:08:21.099Z,15.21
2018-04-12T01:09:21.148Z,15.11
2018-04-12T01:10:21.141Z,15.15
2018-04-12T01:11:21.170Z,15.05
2018-04-12T01:12:21.185Z,15.21
2018-04-12T01:13:21.210Z,15.36
2018-04-12T01:14:21.234Z,15.31
2018-04-12T01:15:21.258Z,15.26
2018-04-12T01:16:21.287Z,15.20
2018-04-12T01:17:21.303Z,15.03
2018-04-12T01:18:21.327Z,15.26
2018-04-12T01:19:21.343Z,15.26
2018-04-12T01:20:21.371Z,15.45
2018-04-12T01:21:21.394Z,15.36
2018-04-12T01:22:21.476Z,15.13
2018-04-12T01:23:21.437Z,14.80
2018-04-12T01:24:21.460Z,14.75
2018-04-12T01:25:21.479Z,14.86
2018-04-12T01:26:21.504Z,15.11
2018-04-12T01:27:21.528Z,14.94
2018-04-12T01:28:21.547Z,14.78
2018-04-12T01:29:21.572Z,14.80
2018-04-12T01:30:21.594Z,14.83
2018-04-12T01:31:21.618Z,14.81
2018-04-12T01:32:21.638Z,14.74
2018-04-12T01:33:21.665Z,14.74
2018-04-12T01:34:21.714Z,14.65
2018-04-12T01:35:21.713Z,14.86
2018-04-12T01:36:21.730Z,14.87
2018-04-12T01:37:21.752Z,14.69
2018-04-12T01:38:21.771Z,14.78
2018-04-12T01:39:21.798Z,14.83
2018-04-12T01:40:21.818Z,14.80
2018-04-12T01:41:21.869Z,14.98
2018-04-12T01:42:21.865Z,14.75
2018-04-12T01:43:21.892Z,14.83
2018-04-12T01:44:21.912Z,14.72
2018-04-12T01:45:21.935Z,14.74
2018-04-12T01:46:21.956Z,14.95
2018-04-12T01:47:21.973Z,14.94
2018-04-12T01:48:22.001Z,14.54
2018-04-12T01:49:22.023Z,14.65
2018-04-12T01:50:22.044Z,14.62
2018-04-12T01:51:22.064Z,14.47
2018-04-12T01:52:22.087Z,14.50
2018-04-12T01:53:22.113Z,14.57
2018-04-12T01:54:22.139Z,14.62
2018-04-12T01:55:22.150Z,14.75
2018-04-12T01:56:22.175Z,14.78
2018-04-12T01:57:22.198Z,14.75
2018-04-12T01:58:22.224Z,14.61
2018-04-12T01:59:22.252Z,14.72
2018-04-12T02:00:22.264Z,14.53
2018-04-12T02:01:22.288Z,14.14
2018-04-12T02:02:22.307Z,14.13
2018-04-12T02:03:22.342Z,14.02
2018-04-12T02:04:22.349Z,14.01
2018-04-12T02:05:22.372Z,13.98
2018-04-12T02:06:22.399Z,14.21
2018-04-12T02:07:22.418Z,14.29
2018-04-12T02:08:22.437Z,14.46
2018-04-12T02:09:22.463Z,14.53
2018-04-12T02:10:22.487Z,14.43
2018-04-12T02:11:22.540Z,14.64
2018-04-12T02:12:22.528Z,14.50
2018-04-12T02:13:22.556Z,14.31
2018-04-12T02:14:22.591Z,13.80
2018-04-12T02:15:22.594Z,13.70
2018-04-12T02:16:22.618Z,13.67
2018-04-12T02:17:22.643Z,13.99
2018-04-12T02:18:22.666Z,13.95
2018-04-12T02:19:22.686Z,14.04
2018-04-12T02:20:22.708Z,13.96
2018-04-12T02:21:22.726Z,13.80
2018-04-12T02:22:22.751Z,14.12
2018-04-12T02:23:22.770Z,14.14
2018-04-12T02:24:22.798Z,14.27
2018-04-12T02:25:22.820Z,14.32
2018-04-12T02:26:22.844Z,14.20
2018-04-12T02:27:22.866Z,14.44
2018-04-12T02:28:22.877Z,14.32
2018-04-12T02:29:22.901Z,14.46
2018-04-12T02:30:22.931Z,14.60
2018-04-12T02:31:22.943Z,14.61
2018-04-12T02:32:22.965Z,14.61
2018-04-12T02:33:22.994Z,14.35
2018-04-12T02:34:23.021Z,14.21
2018-04-12T02:35:23.037Z,14.27
2018-04-12T02:36:23.068Z,14.20
2018-04-12T02:37:23.078Z,14.24
2018-04-12T02:38:23.102Z,14.09
2018-04-12T02:39:23.115Z,14.14
2018-04-12T02:40:23.140Z,14.16
2018-04-12T02:41:23.171Z,14.16
2018-04-12T02:42:23.203Z,14.04
2018-04-12T02:43:23.206Z,14.07
2018-04-12T02:44:23.241Z,14.06
2018-04-12T02:45:23.255Z,14.14
2018-04-12T02:46:23.274Z,14.10
2018-04-12T02:47:23.291Z,13.99
2018-04-12T02:48:23.332Z,14.21
2018-04-12T02:49:23.347Z,14.17
2018-04-12T02:50:23.363Z,14.28
2018-04-12T02:51:23.380Z,14.31
2018-04-12T02:52:23.404Z,14.31
2018-04-12T02:53:23.419Z,14.37
2018-04-12T02:54:23.456Z,14.27
2018-04-12T02:55:23.471Z,14.25
2018-04-12T02:56:23.489Z,14.19
2018-04-12T02:57:23.511Z,14.34
2018-04-12T02:58:23.536Z,14.44
2018-04-12T02:59:23.554Z,14.39
2018-04-12T03:00:23.591Z,14.19
2018-04-12T03:01:23.610Z,13.98
2018-04-12T03:02:23.628Z,13.52
2018-04-12T03:03:23.639Z,13.62
2018-04-12T03:04:23.667Z,13.55
2018-04-12T03:05:23.682Z,13.47
2018-04-12T03:06:23.701Z,13.47
2018-04-12T03:07:23.728Z,13.43
2018-04-12T03:08:23.755Z,13.49
2018-04-12T03:09:23.780Z,13.49
2018-04-12T03:10:23.787Z,13.51
2018-04-12T03:11:23.811Z,13.37
2018-04-12T03:12:23.840Z,13.61
2018-04-12T03:13:23.852Z,13.49
2018-04-12T03:14:23.878Z,13.65
2018-04-12T03:15:23.894Z,13.43
2018-04-12T03:16:23.926Z,13.38
2018-04-12T03:17:23.934Z,13.37
2018-04-12T03:18:23.962Z,13.41
2018-04-12T03:19:24.000Z,13.51
2018-04-12T03:20:24.007Z,13.52
2018-04-12T03:21:24.025Z,13.49
2018-04-12T03:22:24.049Z,13.52
2018-04-12T03:23:24.092Z,13.65
2018-04-12T03:24:24.097Z,13.54
2018-04-12T03:25:24.119Z,13.49
2018-04-12T03:26:24.149Z,13.25
2018-04-12T03:27:24.155Z,13.15
2018-04-12T03:28:24.175Z,13.18
2018-04-12T03:29:24.242Z,13.36
2018-04-12T03:30:24.231Z,13.40
2018-04-12T03:31:24.258Z,13.36
2018-04-12T03:32:24.267Z,13.09
2018-04-12T03:33:24.345Z,12.96
2018-04-12T03:34:24.326Z,12.70
2018-04-12T03:35:24.407Z,12.77
2018-04-12T03:36:24.356Z,12.97
2018-04-12T03:37:24.392Z,12.99
2018-04-12T03:38:24.408Z,13.09
2018-04-12T03:39:24.429Z,13.36
2018-04-12T03:40:24.490Z,13.40
2018-04-12T03:41:24.463Z,13.44
2018-04-12T03:42:24.492Z,13.24
2018-04-12T03:43:24.504Z,12.99
2018-04-12T03:44:24.526Z,12.99
2018-04-12T03:45:24.544Z,13.14
2018-04-12T03:46:24.561Z,13.17
2018-04-12T03:47:24.583Z,13.04
2018-04-12T03:48:24.608Z,12.97
2018-04-12T03:49:24.682Z,12.75
2018-04-12T03:50:24.677Z,12.81
2018-04-12T03:51:24.670Z,12.77
2018-04-12T03:52:24.727Z,12.82
2018-04-12T03:53:24.713Z,12.97
2018-04-12T03:54:24.736Z,12.92
2018-04-12T03:55:24.761Z,13.09
2018-04-12T03:56:24.775Z,13.17
2018-04-12T03:57:24.802Z,13.37
2018-04-12T03:58:24.822Z,13.55
2018-04-12T03:59:24.844Z,13.54
2018-04-12T04:00:24.866Z,13.49
2018-04-12T04:01:24.890Z,13.59
2018-04-12T04:02:24.906Z,13.46
2018-04-12T04:03:24.927Z,13.30
2018-04-12T04:04:24.961Z,13.36
2018-04-12T04:05:24.976Z,13.18
2018-04-12T04:06:25.006Z,13.00
2018-04-12T04:07:25.037Z,13.11
2018-04-12T04:08:25.037Z,13.21
2018-04-12T04:09:25.055Z,13.09
2018-04-12T04:10:25.078Z,13.04
2018-04-12T04:11:25.102Z,12.52
2018-04-12T04:12:25.124Z,12.38
2018-04-12T04:13:25.143Z,12.57
2018-04-12T04:14:25.207Z,12.57
2018-04-12T04:15:25.176Z,12.60
2018-04-12T04:16:25.205Z,12.46
2018-04-12T04:17:25.225Z,12.37
2018-04-12T04:18:25.241Z,12.57
2018-04-12T04:19:25.272Z,12.62
2018-04-12T04:20:25.303Z,12.64
2018-04-12T04:21:25.310Z,12.66
2018-04-12T04:22:25.334Z,12.64
2018-04-12T04:23:25.356Z,12.71
2018-04-12T04:24:25.369Z,12.78
2018-04-12T04:25:25.403Z,12.82
2018-04-12T04:26:25.506Z,12.89
2018-04-12T04:27:25.449Z,12.81
2018-04-12T04:28:25.452Z,12.78
2018-04-12T04:29:25.482Z,12.54
2018-04-12T04:30:25.501Z,12.57
2018-04-12T04:31:25.515Z,12.85
2018-04-12T04:32:25.540Z,12.93
2018-04-12T04:33:25.561Z,12.78
2018-04-12T04:34:25.590Z,12.69
2018-04-12T04:35:25.601Z,12.74
2018-04-12T04:36:25.619Z,12.70
2018-04-12T04:37:25.645Z,12.63
2018-04-12T04:38:25.677Z,12.66
2018-04-12T04:39:25.691Z,12.96
2018-04-12T04:40:25.706Z,13.00
2018-04-12T04:41:25.729Z,12.81
2018-04-12T04:42:25.748Z,12.63
2018-04-12T04:43:25.797Z,12.60
2018-04-12T04:44:25.810Z,12.64
2018-04-12T04:45:25.814Z,12.62
2018-04-12T04:46:25.839Z,12.59
2018-04-12T04:47:25.858Z,12.49
2018-04-12T04:48:25.886Z,12.42
2018-04-12T04:49:25.899Z,12.44
2018-04-12T04:50:25.921Z,12.31
2018-04-12T04:51:25.934Z,12.62
2018-04-12T04:52:25.954Z,12.82
2018-04-12T04:53:25.984Z,12.92
2018-04-12T04:54:26.003Z,12.97
2018-04-12T04:55:26.017Z,12.85
2018-04-12T04:56:26.034Z,12.84
2018-04-12T04:57:26.056Z,12.64
2018-04-12T04:58:26.091Z,12.87
2018-04-12T04:59:26.096Z,13.11
2018-04-12T05:00:26.126Z,13.32
2018-04-12T05:01:26.190Z,13.30
2018-04-12T05:02:26.166Z,13.21
2018-04-12T05:03:26.179Z,13.17
2018-04-12T05:04:26.206Z,13.24
2018-04-12T05:05:26.225Z,13.18
2018-04-12T05:06:26.255Z,12.99
2018-04-12T05:07:26.268Z,12.67
2018-04-12T05:08:26.307Z,12.85
2018-04-12T05:09:26.308Z,12.79
2018-04-12T05:10:26.337Z,12.70
2018-04-12T05:11:26.360Z,12.63
2018-04-12T05:12:26.368Z,12.66
2018-04-12T05:13:26.396Z,12.79
2018-04-12T05:14:26.418Z,12.77
2018-04-12T05:15:26.445Z,12.97
2018-04-12T05:16:26.467Z,12.69
2018-04-12T05:17:26.475Z,12.92
2018-04-12T05:18:26.496Z,12.74
2018-04-12T05:19:26.514Z,12.66
2018-04-12T05:20:26.539Z,12.63
2018-04-12T05:21:26.559Z,12.69
2018-04-12T05:22:26.580Z,12.54
2018-04-12T05:23:26.605Z,12.39
2018-04-12T05:24:26.635Z,12.56
2018-04-12T05:25:26.645Z,12.79
2018-04-12T05:26:26.665Z,12.96
2018-04-12T05:27:26.692Z,12.95
2018-04-12T05:28:26.703Z,12.96
2018-04-12T05:29:26.722Z,12.89
2018-04-12T05:30:26.796Z,12.85
2018-04-12T05:31:26.772Z,12.79
2018-04-12T05:32:26.790Z,12.81
2018-04-12T05:33:26.805Z,12.96
2018-04-12T05:34:26.835Z,12.85
2018-04-12T05:35:26.849Z,12.82
2018-04-12T05:36:26.886Z,12.88
2018-04-12T05:37:26.894Z,12.79
2018-04-12T05:38:26.913Z,12.96
2018-04-12T05:39:26.930Z,13.06
2018-04-12T05:40:26.951Z,13.11
2018-04-12T05:41:26.972Z,12.99
2018-04-12T05:42:27.001Z,13.21
2018-04-12T05:43:27.016Z,13.04
2018-04-12T05:44:27.044Z,12.96
2018-04-12T05:45:27.059Z,13.25
2018-04-12T05:46:27.082Z,13.14
2018-04-12T05:47:27.104Z,13.30
2018-04-12T05:48:27.121Z,13.30
2018-04-12T05:49:27.141Z,13.30
2018-04-12T05:50:27.160Z,13.03
2018-04-12T05:51:27.181Z,13.11
2018-04-12T05:52:27.205Z,12.89
2018-04-12T05:53:27.225Z,13.06
2018-04-12T05:54:27.246Z,13.09
2018-04-12T05:55:27.267Z,12.97
2018-04-12T05:56:27.284Z,13.33
2018-04-12T05:57:27.308Z,13.41
2018-04-12T05:58:27.325Z,13.36
2018-04-12T05:59:27.353Z,13.22
2018-04-12T06:00:27.381Z,13.11
2018-04-12T06:01:27.387Z,13.29
2018-04-12T06:02:27.413Z,13.51
2018-04-12T06:03:27.429Z,13.40
2018-04-12T06:04:27.495Z,13.44
2018-04-12T06:05:27.474Z,13.37
2018-04-12T06:06:27.509Z,13.25
2018-04-12T06:07:27.567Z,13.20
2018-04-12T06:08:27.533Z,13.30
2018-04-12T06:09:27.557Z,13.22
2018-04-12T06:10:27.583Z,13.20
2018-04-12T06:11:27.605Z,13.25
2018-04-12T06:12:27.619Z,13.27
2018-04-12T06:13:27.640Z,13.20
2018-04-12T06:14:27.667Z,13.27
2018-04-12T06:15:27.688Z,13.14
2018-04-12T06:16:27.710Z,13.07
2018-04-12T06:17:27.744Z,13.22
2018-04-12T06:18:27.754Z,13.33
2018-04-12T06:19:27.774Z,13.40
2018-04-12T06:20:27.799Z,13.54
2018-04-12T06:21:27.814Z,13.38
2018-04-12T06:22:27.835Z,13.33
2018-04-12T06:23:27.856Z,13.36
2018-04-12T06:24:27.880Z,13.41
2018-04-12T06:25:27.896Z,13.55
2018-04-12T06:26:27.916Z,13.74
2018-04-12T06:27:27.938Z,13.83
2018-04-12T06:28:27.983Z,13.59
2018-04-12T06:29:27.983Z,13.37
2018-04-12T06:30:28.003Z,13.51
2018-04-12T06:31:28.029Z,13.62
2018-04-12T06:32:28.052Z,13.55
2018-04-12T06:33:28.065Z,13.70
2018-04-12T06:34:28.094Z,13.73
2018-04-12T06:35:28.113Z,13.88
2018-04-12T06:36:28.137Z,13.99
2018-04-12T06:37:28.155Z,14.06
2018-04-12T06:38:28.174Z,14.07
2018-04-12T06:39:28.193Z,13.95
2018-04-12T06:40:28.224Z,14.07
2018-04-12T06:41:28.233Z,13.98
2018-04-12T06:42:28.261Z,13.69
2018-04-12T06:43:28.286Z,13.83
2018-04-12T06:44:28.299Z,13.95
2018-04-12T06:45:28.326Z,13.69
2018-04-12T06:46:28.340Z,13.77
2018-04-12T06:47:28.368Z,14.12
2018-04-12T06:48:28.380Z,13.88
2018-04-12T06:49:28.411Z,13.62
2018-04-12T06:50:28.440Z,13.98
2018-04-12T06:51:28.446Z,14.04
2018-04-12T06:52:28.469Z,13.91
2018-04-12T06:53:28.519Z,13.81
2018-04-12T06:54:28.516Z,14.10
2018-04-12T06:55:28.526Z,14.19
2018-04-12T06:56:28.547Z,14.24
2018-04-12T06:57:28.575Z,14.25
2018-04-12T06:58:28.604Z,14.32
2018-04-12T06:59:28.622Z,14.46
2018-04-12T07:00:28.636Z,14.42
2018-04-12T07:01:28.667Z,14.60
2018-04-12T07:02:28.691Z,14.62
2018-04-12T07:03:28.706Z,14.47
2018-04-12T07:04:28.726Z,14.49
2018-04-12T07:05:28.744Z,14.46
2018-04-12T07:06:28.768Z,14.57
2018-04-12T07:07:28.788Z,14.71
2018-04-12T07:08:28.804Z,14.83
2018-04-12T07:09:28.827Z,14.80
2018-04-12T07:10:28.853Z,14.91
2018-04-12T07:11:28.883Z,15.08
2018-04-12T07:12:28.898Z,15.11
2018-04-12T07:13:28.916Z,15.21
2018-04-12T07:14:28.937Z,15.35
2018-04-12T07:15:28.961Z,15.43
2018-04-12T07:16:28.977Z,15.36
2018-04-12T07:17:29.003Z,15.49
2018-04-12T07:18:29.028Z,15.60
2018-04-12T07:19:29.047Z,15.66
2018-04-12T07:20:29.070Z,15.54
2018-04-12T07:21:29.093Z,15.52
2018-04-12T07:22:29.116Z,15.57
2018-04-12T07:23:29.151Z,15.68
2018-04-12T07:24:29.159Z,15.68
2018-04-12T07:25:29.178Z,15.67
2018-04-12T07:26:29.206Z,15.56
2018-04-12T07:27:29.228Z,15.59
2018-04-12T07:28:29.247Z,15.63
2018-04-12T07:29:29.273Z,15.59
2018-04-12T07:30:29.290Z,15.60
2018-04-12T07:31:29.309Z,15.64
2018-04-12T07:32:29.343Z,15.63
2018-04-12T07:33:29.363Z,15.67
2018-04-12T07:34:29.377Z,15.76
2018-04-12T07:35:29.401Z,15.78
2018-04-12T07:36:29.433Z,15.70
2018-04-12T07:37:29.445Z,15.70
2018-04-12T07:38:29.480Z,15.76
2018-04-12T07:39:29.498Z,15.74
2018-04-12T07:40:29.528Z,15.74
2018-04-12T07:41:29.534Z,15.76
2018-04-12T07:42:29.572Z,15.88
2018-04-12T07:43:29.631Z,15.92
2018-04-12T07:44:29.600Z,15.93
2018-04-12T07:45:29.622Z,16.03
2018-04-12T07:46:29.645Z,15.94
2018-04-12T07:47:29.667Z,15.89
2018-04-12T07:48:29.699Z,15.97
2018-04-12T07:49:29.713Z,15.93
2018-04-12T07:50:29.740Z,15.82
2018-04-12T07:51:29.763Z,15.99
2018-04-12T07:52:29.785Z,15.78
2018-04-12T07:53:29.806Z,15.81
2018-04-12T07:54:29.839Z,15.74
2018-04-12T07:55:29.901Z,15.86
2018-04-12T07:56:29.887Z,15.76
2018-04-12T07:57:29.901Z,15.76
2018-04-12T07:58:29.920Z,15.76
2018-04-12T07:59:29.950Z,15.78
2018-04-12T08:00:29.961Z,15.85
2018-04-12T08:01:30.003Z,15.92
2018-04-12T08:02:30.011Z,15.89
2018-04-12T08:03:30.033Z,15.92
2018-04-12T08:04:30.057Z,15.94
2018-04-12T08:05:30.081Z,16.03
2018-04-12T08:06:30.100Z,16.07
2018-04-12T08:07:30.124Z,16.04
2018-04-12T08:08:30.142Z,16.18
2018-04-12T08:09:30.168Z,16.15
2018-04-12T08:10:30.195Z,16.30
2018-04-12T08:11:30.214Z,16.22
2018-04-12T08:12:30.245Z,16.18
2018-04-12T08:13:30.263Z,16.16
2018-04-12T08:14:30.283Z,16.07
2018-04-12T08:15:30.304Z,16.14
2018-04-12T08:16:30.329Z,16.18
2018-04-12T08:17:30.354Z,16.22
2018-04-12T08:18:30.378Z,16.37
2018-04-12T08:19:30.400Z,16.52
2018-04-12T08:20:30.419Z,16.53
2018-04-12T08:21:30.439Z,16.44
2018-04-12T08:22:30.467Z,16.45
2018-04-12T08:23:30.499Z,16.48
2018-04-12T08:24:30.511Z,16.56
2018-04-12T08:25:30.537Z,16.63
2018-04-12T08:26:30.561Z,16.60
2018-04-12T08:27:30.585Z,16.68
2018-04-12T08:28:30.610Z,16.62
2018-04-12T08:29:30.633Z,16.59
2018-04-12T08:30:30.654Z,16.52
2018-04-12T08:31:30.737Z,16.34
2018-04-12T08:32:30.702Z,16.14
2018-04-12T08:33:30.725Z,16.14
2018-04-12T08:34:30.801Z,16.07
2018-04-12T08:35:30.766Z,16.04
2018-04-12T08:36:30.791Z,15.94
2018-04-12T08:37:30.818Z,15.93
2018-04-12T08:38:30.839Z,15.96
2018-04-12T08:39:30.858Z,15.92
2018-04-12T08:40:30.891Z,15.94
2018-04-12T08:41:30.906Z,16.06
2018-04-12T08:42:30.931Z,16.12
2018-04-12T08:43:30.947Z,16.03
2018-04-12T08:44:30.971Z,16.25
2018-04-12T08:45:30.995Z,16.04
2018-04-12T08:46:31.020Z,15.93
2018-04-12T08:47:31.042Z,15.92
2018-04-12T08:48:31.061Z,15.92
2018-04-12T08:49:31.084Z,15.99
2018-04-12T08:50:31.104Z,15.93
2018-04-12T08:51:31.131Z,15.78
2018-04-12T08:52:31.147Z,15.89
2018-04-12T08:53:31.176Z,15.92
2018-04-12T08:54:31.190Z,15.97
2018-04-12T08:55:31.226Z,15.96
2018-04-12T08:56:31.262Z,15.97
2018-04-12T08:57:31.268Z,15.96
2018-04-12T08:58:31.288Z,15.92
2018-04-12T08:59:31.310Z,15.94
2018-04-12T09:00:31.349Z,15.92
2018-04-12T09:01:31.355Z,15.76
2018-04-12T09:02:31.383Z,15.78
2018-04-12T09:03:31.400Z,15.81
2018-04-12T09:04:31.418Z,15.67
2018-04-12T09:05:31.442Z,15.94
2018-04-12T09:06:31.471Z,16.03
2018-04-12T09:07:31.490Z,15.97
2018-04-12T09:08:31.511Z,15.94
2018-04-12T09:09:31.533Z,15.78
2018-04-12T09:10:31.556Z,15.92
2018-04-12T09:11:31.574Z,15.88
2018-04-12T09:12:31.604Z,15.97
2018-04-12T09:13:31.625Z,15.81
2018-04-12T09:14:31.642Z,15.99
2018-04-12T09:15:31.673Z,16.09
2018-04-12T09:16:31.698Z,16.09
2018-04-12T09:17:31.718Z,16.01
2018-04-12T09:18:31.736Z,15.86
2018-04-12T09:19:31.753Z,15.75
2018-04-12T09:20:31.875Z,15.93
2018-04-12T09:21:31.799Z,15.89
2018-04-12T09:22:31.826Z,15.93
2018-04-12T09:23:31.849Z,15.81
2018-04-12T09:24:31.867Z,15.84
2018-04-12T09:25:31.894Z,15.92
2018-04-12T09:26:31.911Z,16.00
2018-04-12T09:27:31.936Z,15.88
2018-04-12T09:28:31.959Z,15.94
2018-04-12T09:29:31.984Z,15.96
2018-04-12T09:30:32.008Z,15.94
2018-04-12T09:31:32.025Z,15.92
2018-04-12T09:32:32.051Z,15.96
2018-04-12T09:33:32.075Z,15.89
2018-04-12T09:34:32.095Z,15.97
2018-04-12T09:35:32.113Z,15.93
2018-04-12T09:36:32.143Z,15.94
2018-04-12T09:37:32.164Z,15.74
2018-04-12T09:38:32.186Z,15.84
2018-04-12T09:39:32.209Z,15.92
2018-04-12T09:40:32.233Z,15.72
2018-04-12T09:41:32.252Z,15.92
2018-04-12T09:42:32.274Z,15.81
2018-04-12T09:43:32.296Z,15.93
2018-04-12T09:44:32.318Z,15.93
2018-04-12T09:45:32.336Z,15.96
2018-04-12T09:46:32.363Z,15.97
2018-04-12T09:47:32.391Z,15.94
2018-04-12T09:48:32.418Z,16.12
2018-04-12T09:49:32.429Z,15.97
2018-04-12T09:50:32.463Z,15.86
2018-04-12T09:51:32.473Z,15.93
2018-04-12T09:52:32.504Z,15.81
2018-04-12T09:53:32.526Z,15.93
2018-04-12T09:54:32.549Z,15.94
2018-04-12T09:55:32.560Z,16.07
2018-04-12T09:56:32.667Z,15.94
2018-04-12T09:57:32.721Z,15.86
2018-04-12T09:58:32.629Z,15.94
2018-04-12T09:59:32.659Z,15.93
2018-04-12T10:00:32.684Z,15.92
2018-04-12T10:01:32.703Z,15.92
2018-04-12T10:02:32.722Z,15.89
2018-04-12T10:03:32.742Z,15.81
2018-04-12T10:04:32.777Z,15.70
2018-04-12T10:05:32.791Z,15.93
2018-04-12T10:06:32.819Z,15.94
2018-04-12T10:07:32.839Z,15.86
2018-04-12T10:08:32.858Z,15.89
2018-04-12T10:09:32.885Z,15.93
2018-04-12T10:10:32.905Z,15.99
2018-04-12T10:11:32.931Z,15.93
2018-04-12T10:12:32.944Z,15.89
2018-04-12T10:13:32.970Z,15.92
2018-04-12T10:14:32.999Z,15.82
2018-04-12T10:15:33.013Z,15.93
2018-04-12T10:16:33.037Z,15.89
2018-04-12T10:17:33.072Z,15.93
2018-04-12T10:18:33.081Z,15.93
2018-04-12T10:19:33.105Z,15.96
2018-04-12T10:20:33.135Z,16.00
2018-04-12T10:21:33.151Z,16.16
2018-04-12T10:22:33.171Z,16.26
2018-04-12T10:23:33.199Z,16.06
2018-04-12T10:24:33.224Z,15.96
2018-04-12T10:25:33.245Z,16.11
2018-04-12T10:26:33.267Z,16.33
2018-04-12T10:27:33.291Z,16.27
2018-04-12T10:28:33.312Z,16.30
2018-04-12T10:29:33.338Z,16.26
2018-04-12T10:30:33.349Z,16.20
2018-04-12T10:31:33.377Z,16.25
2018-04-12T10:32:33.419Z,16.16
2018-04-12T10:33:33.427Z,16.34
2018-04-12T10:34:33.448Z,16.49
2018-04-12T10:35:33.466Z,16.45
2018-04-12T10:36:33.488Z,16.50
2018-04-12T10:37:33.516Z,16.48
2018-04-12T10:38:33.546Z,16.55
2018-04-12T10:39:33.567Z,16.65
2018-04-12T10:40:33.585Z,16.81
2018-04-12T10:41:33.664Z,16.77
2018-04-12T10:42:33.635Z,16.68
2018-04-12T10:43:33.648Z,16.67
2018-04-12T10:44:33.680Z,16.99
2018-04-12T10:45:33.701Z,17.13
2018-04-12T10:46:33.740Z,17.06
2018-04-12T10:47:33.741Z,16.98
2018-04-12T10:48:33.764Z,16.95
2018-04-12T10:49:33.784Z,16.99
2018-04-12T10:50:33.810Z,16.99
2018-04-12T10:51:33.833Z,17.07
2018-04-12T10:52:33.863Z,17.28
2018-04-12T10:53:33.878Z,17.29
2018-04-12T10:54:33.900Z,17.33
2018-04-12T10:55:33.922Z,17.29
2018-04-12T10:56:33.943Z,17.22
2018-04-12T10:57:33.978Z,17.15
2018-04-12T10:58:33.993Z,17.04
2018-04-12T10:59:34.011Z,16.92
2018-04-12T11:00:34.040Z,17.08
2018-04-12T11:01:34.062Z,17.11
2018-04-12T11:02:34.088Z,16.95
2018-04-12T11:03:34.113Z,17.03
2018-04-12T11:04:34.134Z,17.23
2018-04-12T11:05:34.156Z,17.30
2018-04-12T11:06:34.180Z,17.33
2018-04-12T11:07:34.200Z,17.33
2018-04-12T11:08:34.225Z,17.29
2018-04-12T11:09:34.251Z,17.53
2018-04-12T11:10:34.276Z,17.48
2018-04-12T11:11:34.297Z,17.63
2018-04-12T11:12:34.321Z,17.67
2018-04-12T11:13:34.343Z,17.67
2018-04-12T11:14:34.364Z,17.64
2018-04-12T11:15:34.385Z,17.62
2018-04-12T11:16:34.412Z,17.64
2018-04-12T11:17:34.435Z,17.57
2018-04-12T11:18:34.455Z,17.70
2018-04-12T11:19:34.483Z,17.67
2018-04-12T11:20:34.505Z,17.69
2018-04-12T11:21:34.520Z,17.73
2018-04-12T11:22:34.553Z,17.81
2018-04-12T11:23:34.603Z,17.81
2018-04-12T11:24:34.594Z,17.82
2018-04-12T11:25:34.621Z,17.87
2018-04-12T11:26:34.651Z,17.81
2018-04-12T11:27:34.665Z,17.79
2018-04-12T11:28:34.690Z,17.78
2018-04-12T11:29:34.713Z,17.82
2018-04-12T11:30:34.742Z,17.94
2018-04-12T11:31:34.807Z,17.88
2018-04-12T11:32:34.791Z,17.92
2018-04-12T11:33:34.808Z,17.87
2018-04-12T11:34:34.860Z,18.00
2018-04-12T11:35:34.845Z,18.07
2018-04-12T11:36:34.888Z,18.07
2018-04-12T11:37:34.891Z,18.09
2018-04-12T11:38:34.923Z,18.00
2018-04-12T11:39:34.944Z,18.10
2018-04-12T11:40:35.004Z,18.25
2018-04-12T11:41:35.001Z,18.34
2018-04-12T11:42:35.033Z,18.52
2018-04-12T11:43:35.041Z,18.31
2018-04-12T11:44:35.063Z,18.43
2018-04-12T11:45:35.093Z,18.47
2018-04-12T11:46:35.118Z,18.54
2018-04-12T11:47:35.136Z,18.57
2018-04-12T11:48:35.169Z,18.65
2018-04-12T11:49:35.196Z,18.73
2018-04-12T11:50:35.216Z,18.86
2018-04-12T11:51:35.230Z,19.05
2018-04-12T11:52:35.253Z,19.20
2018-04-12T11:53:35.284Z,19.10
2018-04-12T11:54:35.300Z,19.21
2018-04-12T11:55:35.332Z,19.02
2018-04-12T11:56:35.386Z,18.83
2018-04-12T11:57:35.372Z,18.83
2018-04-12T11:58:35.399Z,18.99
2018-04-12T11:59:35.425Z,18.99
2018-04-12T12:00:35.473Z,18.95
2018-04-12T12:01:35.484Z,19.01
2018-04-12T12:02:35.523Z,19.06
2018-04-12T12:03:35.517Z,19.25
2018-04-12T12:04:35.540Z,19.13
2018-04-12T12:05:35.573Z,19.01
2018-04-12T12:06:35.595Z,18.94
2018-04-12T12:07:35.616Z,19.05
2018-04-12T12:08:35.649Z,19.13
2018-04-12T12:09:35.666Z,19.31
2018-04-12T12:10:35.698Z,19.42
2018-04-12T12:11:35.713Z,19.53
2018-04-12T12:12:35.742Z,19.55
2018-04-12T12:13:35.766Z,19.75
2018-04-12T12:14:35.792Z,19.83
2018-04-12T12:15:35.811Z,19.70
2018-04-12T12:16:35.848Z,19.72
2018-04-12T12:17:35.924Z,19.68
2018-04-12T12:18:35.883Z,19.76
2018-04-12T12:19:35.915Z,19.93
2018-04-12T12:20:35.941Z,19.90
2018-04-12T12:21:35.958Z,19.75
2018-04-12T12:22:35.992Z,19.84
2018-04-12T12:23:36.006Z,19.90
2018-04-12T12:24:36.042Z,20.02
2018-04-12T12:25:36.064Z,19.98
2018-04-12T12:26:36.095Z,20.13
2018-04-12T12:27:36.110Z,20.24
2018-04-12T12:28:36.135Z,20.15
2018-04-12T12:29:36.164Z,20.10
2018-04-12T12:30:36.189Z,20.12
2018-04-12T12:31:36.217Z,20.23
2018-04-12T12:32:36.232Z,20.35
2018-04-12T12:33:36.275Z,20.54
2018-04-12T12:34:36.287Z,20.61
2018-04-12T12:35:36.313Z,20.68
2018-04-12T12:36:36.341Z,20.58
2018-04-12T12:37:36.376Z,20.54
2018-04-12T12:38:36.393Z,20.62
2018-04-12T12:39:36.414Z,20.56
2018-04-12T12:40:36.440Z,20.64
2018-04-12T12:41:36.465Z,20.42
2018-04-12T12:42:36.489Z,20.46
2018-04-12T12:43:36.512Z,20.51
2018-04-12T12:44:36.552Z,20.69
2018-04-12T12:45:36.570Z,20.84
2018-04-12T12:46:36.585Z,21.23
2018-04-12T12:47:36.619Z,21.35
2018-04-12T12:48:36.646Z,21.38
2018-04-12T12:49:36.671Z,21.60
2018-04-12T12:50:36.701Z,21.32
2018-04-12T12:51:36.715Z,21.20
2018-04-12T12:52:36.745Z,21.27